Time;durP1;ratioP1;P1;durP2;ratioP2;P2;SDS_P1;SDS_P2;PMS_P1;PMS_P2;Temp;Humidity;BMP_temperature;BMP_pressure;BME280_temperature;BME280_humidity;BME280_pressure;Samples;Min_cycle;Max_cycle;Signal;HPM_P1;HPM_P2
2023/01/25 00:00:43;;;;;;;29.80;18.63;;;0.90;99.90;;;;;;5030410;28;20025;-48
2023/01/25 00:03:09;;;;;;;28.40;17.60;;;0.80;99.90;;;;;;5030517;28;20520;-48
2023/01/25 00:05:35;;;;;;;29.13;17.37;;;0.80;99.90;;;;;;5028918;28;20098;-50
2023/01/25 00:08:01;;;;;;;27.70;16.90;;;0.80;99.90;;;;;;5030102;28;20037;-51
2023/01/25 00:10:26;;;;;;;28.50;17.13;;;0.90;99.90;;;;;;5030405;28;20036;-51
2023/01/25 00:12:52;;;;;;;27.83;17.13;;;0.80;99.90;;;;;;5030218;28;20030;-47
2023/01/25 00:15:18;;;;;;;28.30;16.60;;;0.80;99.90;;;;;;5030043;28;20033;-51
2023/01/25 00:17:43;;;;;;;27.30;14.83;;;0.80;99.90;;;;;;5029955;28;20033;-47
2023/01/25 00:20:09;;;;;;;23.77;14.27;;;0.70;99.90;;;;;;5030221;28;20476;-51
2023/01/25 00:22:35;;;;;;;31.17;17.37;;;0.70;99.90;;;;;;5030059;28;20033;-48
2023/01/25 00:25:01;;;;;;;29.33;16.97;;;0.60;99.90;;;;;;5030008;28;20083;-49
2023/01/25 00:27:27;;;;;;;33.60;18.00;;;0.60;99.90;;;;;;5030109;28;20026;-47
2023/01/25 00:29:53;;;;;;;27.80;16.07;;;0.50;99.90;;;;;;5030213;28;20121;-48
2023/01/25 00:32:19;;;;;;;29.57;18.03;;;0.50;99.90;;;;;;5030006;28;20133;-49
2023/01/25 00:34:49;;;;;;;29.97;16.67;;;0.40;99.90;;;;;;5030124;28;20449;-49
2023/01/25 00:37:34;;;;;;;31.20;17.47;;;0.40;99.90;;;;;;5029708;28;20063;-48
2023/01/25 00:40:00;;;;;;;29.23;16.57;;;0.40;99.90;;;;;;5028926;28;20389;-48
2023/01/25 00:42:26;;;;;;;27.50;16.10;;;0.50;99.90;;;;;;5032932;28;20117;-47
2023/01/25 00:44:51;;;;;;;29.63;16.87;;;0.50;99.90;;;;;;5033678;28;20038;-48
2023/01/25 00:47:19;;;;;;;29.23;17.70;;;0.50;99.90;;;;;;5032324;28;20033;-49
2023/01/25 00:49:45;;;;;;;29.17;17.53;;;0.50;99.90;;;;;;5033609;28;20113;-47
2023/01/25 00:52:12;;;;;;;29.73;17.73;;;0.50;99.90;;;;;;5033715;28;20112;-49
2023/01/25 00:54:38;;;;;;;33.97;18.17;;;0.40;99.90;;;;;;5033456;28;20091;-48
2023/01/25 00:57:04;;;;;;;30.53;17.53;;;0.40;99.90;;;;;;5032102;28;20040;-47
2023/01/25 00:59:30;;;;;;;29.97;17.30;;;0.40;99.90;;;;;;5033312;28;20034;-48
2023/01/25 01:01:56;;;;;;;31.77;18.10;;;0.40;99.90;;;;;;5032258;28;20657;-49
2023/01/25 01:04:23;;;;;;;33.47;18.23;;;0.30;99.90;;;;;;5031937;28;20418;-49
2023/01/25 01:06:52;;;;;;;30.53;18.27;;;0.20;99.90;;;;;;5032002;28;20052;-49
2023/01/25 01:09:20;;;;;;;34.22;19.20;;;0.10;99.90;;;;;;5033301;28;20489;-48
2023/01/25 01:11:46;;;;;;;28.60;16.87;;;0.10;99.90;;;;;;5032026;28;20029;-47
2023/01/25 01:14:12;;;;;;;27.97;15.80;;;0.10;99.90;;;;;;5033051;28;20155;-48
2023/01/25 01:16:38;;;;;;;28.10;16.27;;;0.10;99.90;;;;;;5033134;28;20484;-49
2023/01/25 01:19:04;;;;;;;29.20;17.40;;;0.20;99.90;;;;;;5033032;28;20072;-49
2023/01/25 01:21:30;;;;;;;30.57;17.97;;;0.20;99.90;;;;;;5033071;28;20021;-47
2023/01/25 01:23:56;;;;;;;28.77;17.10;;;0.10;99.90;;;;;;5031736;28;20334;-48
2023/01/25 01:26:23;;;;;;;31.93;18.00;;;0.10;99.90;;;;;;5032728;28;20120;-48
2023/01/25 01:28:49;;;;;;;30.23;17.60;;;0.10;99.90;;;;;;5033097;28;20516;-47
2023/01/25 01:31:21;;;;;;;28.83;17.37;;;0.10;99.90;;;;;;5031422;28;20095;-47
2023/01/25 01:34:00;;;;;;;31.73;18.00;;;0.00;99.90;;;;;;5031828;28;20059;-50
2023/01/25 01:36:27;;;;;;;32.40;17.80;;;-0.10;99.90;;;;;;5031350;28;20036;-49
2023/01/25 01:38:53;;;;;;;34.87;18.90;;;-0.10;99.90;;;;;;5031544;28;20034;-49
2023/01/25 01:41:19;;;;;;;30.17;18.00;;;-0.10;99.90;;;;;;5032606;28;20110;-51
2023/01/25 01:43:46;;;;;;;31.30;18.30;;;-0.20;99.90;;;;;;5032681;28;20025;-48
2023/01/25 01:46:16;;;;;;;34.10;18.73;;;-0.20;99.90;;;;;;5032912;28;20363;-53
2023/01/25 01:48:48;;;;;;;;;;;-0.20;99.90;;;;;;5031894;28;20040;-51
2023/01/25 01:51:48;;;;;;;37.77;19.50;;;-0.20;99.90;;;;;;5031197;28;20381;-53
2023/01/25 01:54:33;;;;;;;37.43;19.37;;;-0.20;99.90;;;;;;5030163;28;20039;-48
2023/01/25 01:57:11;;;;;;;33.90;17.60;;;-0.10;99.90;;;;;;5030968;28;20449;-51
2023/01/25 01:59:42;;;;;;;31.00;17.97;;;0.00;99.90;;;;;;5031051;28;20048;-49
2023/01/25 02:02:08;;;;;;;31.30;18.60;;;0.00;99.90;;;;;;5031078;28;20049;-54
2023/01/25 02:04:35;;;;;;;34.27;19.30;;;-0.10;99.90;;;;;;5030976;28;20123;-50
2023/01/25 02:07:10;;;;;;;33.67;19.27;;;-0.10;99.90;;;;;;5030814;28;20074;-50
2023/01/25 02:09:37;;;;;;;31.57;18.53;;;-0.10;99.90;;;;;;5031016;28;20116;-52
2023/01/25 02:12:04;;;;;;;35.37;20.17;;;-0.20;99.90;;;;;;5032169;28;20486;-49
2023/01/25 02:14:30;;;;;;;32.00;18.63;;;-0.20;99.90;;;;;;5030729;28;20051;-52
2023/01/25 02:16:58;;;;;;;33.80;19.60;;;-0.10;99.90;;;;;;5031993;28;20079;-49
2023/01/25 02:19:41;;;;;;;36.13;20.07;;;-0.10;99.90;;;;;;5031860;28;20436;-51
2023/01/25 02:22:12;;;;;;;39.53;20.67;;;-0.10;99.90;;;;;;5032250;28;20079;-46
2023/01/25 02:24:41;;;;;;;31.73;18.10;;;0.00;99.90;;;;;;5031821;28;20509;-49
2023/01/25 02:27:07;;;;;;;35.65;19.52;;;0.10;99.90;;;;;;5030484;28;20117;-49
2023/01/25 02:29:33;;;;;;;35.20;19.63;;;0.10;99.90;;;;;;5030517;28;20124;-49
2023/01/25 02:32:03;;;;;;;34.63;18.63;;;0.10;99.90;;;;;;5031719;28;20041;-49
2023/01/25 02:34:28;;;;;;;33.25;18.38;;;0.20;99.90;;;;;;5030360;28;20148;-51
2023/01/25 02:36:54;;;;;;;30.47;17.50;;;0.20;99.90;;;;;;5030378;28;20119;-48
2023/01/25 02:39:22;;;;;;;30.83;18.03;;;0.20;99.90;;;;;;5030291;28;20021;-50
2023/01/25 02:41:48;;;;;;;31.95;17.77;;;0.20;99.90;;;;;;5030324;28;20033;-49
2023/01/25 02:44:41;;;;;;;31.43;17.60;;;0.10;99.90;;;;;;5030055;28;20036;-47
2023/01/25 02:47:08;;;;;;;32.37;18.63;;;0.10;99.90;;;;;;5026296;28;20036;-50
2023/01/25 02:49:35;;;;;;;33.27;19.07;;;0.00;99.90;;;;;;5030219;28;20128;-49
2023/01/25 02:52:02;;;;;;;32.57;17.97;;;0.00;99.90;;;;;;5030171;28;20034;-52
2023/01/25 02:54:29;;;;;;;34.27;19.50;;;0.00;99.90;;;;;;5029812;28;20179;-47
2023/01/25 02:56:55;;;;;;;31.33;18.20;;;0.00;99.90;;;;;;5031143;28;20091;-52
2023/01/25 02:59:23;;;;;;;32.40;18.70;;;0.00;99.90;;;;;;5029966;28;20033;-47
2023/01/25 03:01:53;;;;;;;33.88;19.85;;;0.00;99.90;;;;;;5029890;28;20026;-52
2023/01/25 03:04:19;;;;;;;36.03;19.80;;;0.10;99.90;;;;;;5029527;28;20490;-51
2023/01/25 03:06:46;;;;;;;33.87;19.17;;;0.10;99.90;;;;;;5029687;28;20041;-53
2023/01/25 03:09:12;;;;;;;37.03;20.70;;;0.00;99.90;;;;;;5029790;28;20056;-50
2023/01/25 03:11:43;;;;;;;35.17;20.37;;;0.00;99.90;;;;;;5029686;28;20042;-49
2023/01/25 03:14:09;;;;;;;35.13;20.50;;;0.00;99.90;;;;;;5029712;28;20099;-48
2023/01/25 03:16:35;;;;;;;34.70;19.67;;;0.00;99.90;;;;;;5030821;28;20493;-50
2023/01/25 03:19:02;;;;;;;35.20;20.60;;;0.10;99.90;;;;;;5029607;28;20401;-47
2023/01/25 03:21:28;;;;;;;35.23;20.00;;;0.10;99.90;;;;;;5029547;28;20025;-50
2023/01/25 03:23:57;;;;;;;35.17;19.40;;;0.10;99.90;;;;;;5030676;28;20552;-49
2023/01/25 03:26:26;;;;;;;35.77;19.63;;;0.10;99.90;;;;;;5029414;28;20436;-47
2023/01/25 03:29:07;;;;;;;37.43;20.47;;;0.10;99.90;;;;;;5029643;28;20034;-51
2023/01/25 03:31:36;;;;;;;32.60;18.30;;;-0.10;99.90;;;;;;5041840;23;20408;-46
2023/01/25 03:34:02;;;;;;;35.83;18.93;;;0.00;99.90;;;;;;5028257;28;20124;-47
2023/01/25 03:36:32;;;;;;;36.07;19.20;;;0.00;99.90;;;;;;5029248;28;20026;-49
2023/01/25 03:38:58;;;;;;;39.20;21.10;;;-0.10;99.90;;;;;;5029427;28;20540;-46
2023/01/25 03:41:24;;;;;;;38.50;19.93;;;0.00;99.90;;;;;;5029395;28;20549;-51
2023/01/25 03:43:50;;;;;;;38.00;20.40;;;0.00;99.90;;;;;;5030544;28;20128;-48
2023/01/25 03:46:16;;;;;;;39.00;21.20;;;-0.10;99.90;;;;;;5029342;28;20022;-46
2023/01/25 03:48:42;;;;;;;39.63;21.23;;;0.00;99.90;;;;;;5029267;28;20454;-50
2023/01/25 03:51:08;;;;;;;37.13;19.87;;;0.00;99.90;;;;;;5029550;28;20152;-49
2023/01/25 03:53:35;;;;;;;39.87;20.73;;;0.00;99.90;;;;;;5029174;28;20067;-45
2023/01/25 03:56:10;;;;;;;39.70;21.47;;;0.00;99.90;;;;;;5029505;28;20029;-45
2023/01/25 03:58:38;;;;;;;38.87;21.53;;;0.10;99.90;;;;;;5029166;28;20048;-45
2023/01/25 04:01:06;;;;;;;39.13;20.40;;;0.10;99.90;;;;;;5029504;28;20540;-45
2023/01/25 04:03:33;;;;;;;39.17;20.27;;;0.10;99.90;;;;;;5029191;28;20026;-45
2023/01/25 04:05:59;;;;;;;35.67;20.40;;;0.10;99.90;;;;;;5029550;28;20025;-48
2023/01/25 04:08:27;;;;;;;36.30;20.47;;;0.10;99.90;;;;;;5029144;28;20627;-45
2023/01/25 04:10:56;;;;;;;39.73;20.43;;;0.10;99.90;;;;;;5030622;28;20029;-49
2023/01/25 04:13:23;;;;;;;38.33;21.03;;;0.10;99.90;;;;;;5028955;28;20064;-50
2023/01/25 04:15:49;;;;;;;36.63;20.03;;;0.10;99.90;;;;;;5029867;28;20405;-46
2023/01/25 04:18:30;;;;;;;37.53;19.73;;;0.10;99.90;;;;;;5033047;28;20025;-46
2023/01/25 04:20:57;;;;;;;38.23;20.73;;;0.10;99.90;;;;;;5034748;28;20072;-45
2023/01/25 04:23:24;;;;;;;36.83;20.40;;;0.10;99.90;;;;;;5034456;28;20052;-48
2023/01/25 04:25:56;;;;;;;41.40;20.80;;;0.10;99.90;;;;;;5033233;28;20039;-48
2023/01/25 04:28:22;;;;;;;40.30;20.90;;;0.10;99.90;;;;;;5033198;28;20064;-45
2023/01/25 04:30:48;;;;;;;41.40;20.83;;;0.10;99.90;;;;;;5033186;28;20099;-47
2023/01/25 04:33:16;;;;;;;37.93;19.63;;;0.20;99.90;;;;;;5033092;28;20099;-46
2023/01/25 04:35:43;;;;;;;44.40;22.20;;;0.20;99.90;;;;;;5033003;28;20059;-47
2023/01/25 04:38:09;;;;;;;42.13;22.37;;;0.20;99.90;;;;;;5032854;28;20371;-47
2023/01/25 04:40:39;;;;;;;;;;;0.20;99.90;;;;;;5033335;28;20506;-48
2023/01/25 04:43:05;;;;;;;37.60;20.60;;;0.30;99.90;;;;;;5034300;28;20464;-45
2023/01/25 04:45:32;;;;;;;39.33;20.40;;;0.30;99.90;;;;;;5032643;28;20037;-48
2023/01/25 04:48:01;;;;;;;40.40;21.73;;;0.30;99.90;;;;;;5032731;28;20033;-48
2023/01/25 04:50:29;;;;;;;40.65;21.52;;;0.30;99.90;;;;;;5032730;28;20088;-45
2023/01/25 04:52:54;;;;;;;40.03;21.73;;;0.30;99.90;;;;;;5032754;28;20448;-46
2023/01/25 04:55:22;;;;;;;40.07;21.03;;;0.20;99.90;;;;;;5032335;28;20060;-45
2023/01/25 04:57:50;;;;;;;40.53;21.67;;;0.20;99.90;;;;;;5032393;28;20112;-49
2023/01/25 05:00:18;;;;;;;38.60;21.87;;;0.30;99.90;;;;;;5032551;28;20025;-47
2023/01/25 05:02:43;;;;;;;43.93;22.00;;;0.30;99.90;;;;;;5032433;28;20437;-51
2023/01/25 05:05:09;;;;;;;42.07;22.23;;;0.30;99.90;;;;;;5015842;28;20026;-48
2023/01/25 05:07:35;;;;;;;43.53;23.00;;;0.20;99.90;;;;;;5031986;28;20424;-46
2023/01/25 05:10:03;;;;;;;40.63;21.90;;;0.20;99.90;;;;;;5032181;28;20091;-45
2023/01/25 05:12:28;;;;;;;38.93;21.53;;;0.20;99.90;;;;;;5032013;28;20030;-46
2023/01/25 05:14:59;;;;;;;39.73;21.13;;;0.10;99.90;;;;;;5031833;28;20067;-49
2023/01/25 05:17:25;;;;;;;40.77;22.30;;;0.10;99.90;;;;;;5022424;28;20049;-48
2023/01/25 05:19:51;;;;;;;37.93;21.33;;;0.10;99.90;;;;;;5030376;28;20041;-44
2023/01/25 05:22:20;;;;;;;37.38;20.77;;;0.20;99.90;;;;;;5030117;28;20033;-46
2023/01/25 05:24:48;;;;;;;38.60;20.47;;;0.20;99.90;;;;;;5030297;28;20037;-45
2023/01/25 05:27:18;;;;;;;39.70;21.13;;;0.20;99.90;;;;;;5030182;28;20048;-46
2023/01/25 05:30:04;;;;;;;38.00;20.00;;;0.20;99.90;;;;;;5021449;28;20038;-46
2023/01/25 05:32:37;;;;;;;38.17;20.27;;;0.20;99.90;;;;;;5045618;28;20391;-44
2023/01/25 05:35:03;;;;;;;38.53;20.33;;;0.20;99.90;;;;;;5030206;28;20037;-48
2023/01/25 05:37:29;;;;;;;37.93;20.60;;;0.10;99.90;;;;;;5046331;28;20038;-45
2023/01/25 05:40:05;;;;;;;35.77;20.20;;;0.00;99.90;;;;;;5030114;28;20144;-45
2023/01/25 05:42:35;;;;;;;41.57;21.70;;;0.00;99.90;;;;;;5029606;28;20490;-48
2023/01/25 05:45:01;;;;;;;41.23;21.23;;;0.10;99.90;;;;;;5029706;28;20033;-46
2023/01/25 05:47:28;;;;;;;40.90;22.07;;;0.10;99.90;;;;;;5028911;28;20398;-47
2023/01/25 05:49:54;;;;;;;39.50;20.23;;;0.10;99.90;;;;;;5029937;28;20498;-49
2023/01/25 05:52:31;;;;;;;36.77;18.70;;;0.10;99.90;;;;;;5029677;28;20494;-47
2023/01/25 05:54:57;;;;;;;38.07;19.93;;;0.10;99.90;;;;;;5029772;28;20028;-48
2023/01/25 05:57:23;;;;;;;37.47;18.27;;;0.10;99.90;;;;;;5029400;28;20439;-47
2023/01/25 05:59:49;;;;;;;37.80;20.57;;;0.10;99.90;;;;;;5029747;28;20091;-47
2023/01/25 06:02:17;;;;;;;41.15;19.70;;;0.10;99.90;;;;;;5028712;28;20029;-45
2023/01/25 06:04:44;;;;;;;37.87;18.50;;;0.10;99.90;;;;;;5029789;28;20378;-46
2023/01/25 06:07:10;;;;;;;37.57;19.83;;;0.20;99.90;;;;;;5029146;28;20064;-46
2023/01/25 06:09:36;;;;;;;41.07;21.27;;;0.20;99.90;;;;;;5031107;28;20037;-45
2023/01/25 06:12:04;;;;;;;42.17;22.10;;;0.20;99.90;;;;;;5029162;28;20492;-48
2023/01/25 06:14:30;;;;;;;41.53;22.17;;;0.20;99.90;;;;;;5029412;28;20089;-47
2023/01/25 06:16:57;;;;;;;45.40;24.00;;;0.20;99.90;;;;;;5028255;28;20078;-49
2023/01/25 06:19:49;;;;;;;41.20;21.37;;;0.20;99.90;;;;;;5030695;28;20080;-46
2023/01/25 06:22:26;;;;;;;42.43;22.07;;;0.20;99.90;;;;;;5029327;28;20113;-48
2023/01/25 06:24:52;;;;;;;43.17;22.43;;;0.20;99.90;;;;;;5030132;28;20455;-50
2023/01/25 06:27:18;;;;;;;45.17;22.43;;;0.30;99.90;;;;;;5029948;28;20029;-51
2023/01/25 06:29:43;;;;;;;42.43;22.83;;;0.40;99.90;;;;;;5030550;28;20060;-49
2023/01/25 06:32:09;;;;;;;43.37;22.73;;;0.40;99.90;;;;;;5029172;28;20037;-49
2023/01/25 06:34:35;;;;;;;44.10;23.63;;;0.30;99.90;;;;;;5030140;28;20026;-51
2023/01/25 06:37:01;;;;;;;49.43;24.77;;;0.20;99.90;;;;;;5028514;28;20034;-49
2023/01/25 06:39:28;;;;;;;45.03;23.40;;;0.20;99.90;;;;;;5029348;28;20124;-50
2023/01/25 06:41:55;;;;;;;44.03;22.80;;;0.20;99.90;;;;;;5029710;28;20075;-49
2023/01/25 06:44:21;;;;;;;47.73;24.60;;;0.10;99.90;;;;;;5028542;28;20060;-46
2023/01/25 06:46:46;;;;;;;53.10;24.17;;;0.10;99.90;;;;;;5028475;28;20482;-51
2023/01/25 06:49:12;;;;;;;52.37;25.07;;;0.10;99.90;;;;;;5029808;28;20022;-46
2023/01/25 06:51:38;;;;;;;50.80;24.27;;;0.10;99.90;;;;;;5029353;28;20044;-48
2023/01/25 06:54:06;;;;;;;51.77;26.53;;;0.00;99.90;;;;;;5029684;28;20037;-50
2023/01/25 06:56:32;;;;;;;60.70;29.60;;;0.00;99.90;;;;;;5029387;28;20033;-48
2023/01/25 06:58:57;;;;;;;61.37;29.93;;;0.00;99.90;;;;;;5029885;28;20386;-47
2023/01/25 07:01:29;;;;;;;64.07;29.77;;;-0.10;99.90;;;;;;5028833;28;20064;-48
2023/01/25 07:03:57;;;;;;;60.17;28.90;;;0.00;99.90;;;;;;5029525;28;20037;-45
2023/01/25 07:06:23;;;;;;;63.03;28.63;;;0.00;99.90;;;;;;5028762;28;20501;-50
2023/01/25 07:08:50;;;;;;;59.20;30.07;;;0.00;99.90;;;;;;5029793;28;20068;-47
2023/01/25 07:11:17;;;;;;;65.37;29.70;;;0.10;99.90;;;;;;5029203;28;20045;-51
2023/01/25 07:13:45;;;;;;;66.33;31.10;;;0.20;99.90;;;;;;5029122;28;20516;-46
2023/01/25 07:16:13;;;;;;;61.90;29.77;;;0.20;99.90;;;;;;5028406;28;20041;-48
2023/01/25 07:18:39;;;;;;;67.60;31.73;;;0.30;99.90;;;;;;5030635;28;20033;-50
2023/01/25 07:21:12;;;;;;;65.63;31.93;;;0.30;99.90;;;;;;5030876;28;20065;-48
2023/01/25 07:23:38;;;;;;;69.23;31.60;;;0.30;99.90;;;;;;5030810;28;20261;-47
2023/01/25 07:26:05;;;;;;;72.20;33.17;;;0.40;99.90;;;;;;5030836;28;20063;-48
2023/01/25 07:28:31;;;;;;;72.93;32.27;;;0.40;99.90;;;;;;5030689;28;20592;-46
2023/01/25 07:31:07;;;;;;;69.07;32.50;;;0.40;99.90;;;;;;5030630;28;20486;-45
2023/01/25 07:33:33;;;;;;;70.73;33.67;;;0.40;99.90;;;;;;5030148;28;20064;-45
2023/01/25 07:36:04;;;;;;;74.63;33.50;;;0.40;99.90;;;;;;5030466;28;20051;-48
2023/01/25 07:38:30;;;;;;;73.50;33.27;;;0.40;99.90;;;;;;5030503;28;20073;-47
2023/01/25 07:40:56;;;;;;;71.30;33.73;;;0.40;99.90;;;;;;5030455;28;20029;-47
2023/01/25 07:43:22;;;;;;;72.00;32.17;;;0.40;99.90;;;;;;5030384;28;20035;-46
2023/01/25 07:45:48;;;;;;;69.97;33.20;;;0.40;99.90;;;;;;5030422;28;20026;-45
2023/01/25 07:48:15;;;;;;;75.00;33.83;;;0.40;99.90;;;;;;5030205;28;20172;-48
2023/01/25 07:50:41;;;;;;;70.07;33.80;;;0.40;99.90;;;;;;5030411;28;20041;-45
2023/01/25 07:53:07;;;;;;;79.80;35.93;;;0.40;99.90;;;;;;5030421;28;20039;-47
2023/01/25 07:55:34;;;;;;;73.77;34.33;;;0.30;99.90;;;;;;5030168;28;20064;-45
2023/01/25 07:57:59;;;;;;;79.27;35.80;;;0.30;99.90;;;;;;5030115;28;20129;-44
2023/01/25 08:00:26;;;;;;;85.93;37.03;;;0.30;99.90;;;;;;5030148;28;20112;-45
2023/01/25 08:02:51;;;;;;;81.50;36.33;;;0.30;99.90;;;;;;5030246;28;20033;-45
2023/01/25 08:05:18;;;;;;;78.93;35.33;;;0.30;99.90;;;;;;5030071;28;20037;-45
2023/01/25 08:07:45;;;;;;;80.83;35.33;;;0.40;99.90;;;;;;5028736;28;20057;-50
2023/01/25 08:10:11;;;;;;;78.07;34.67;;;0.40;99.90;;;;;;5030319;28;20112;-47
2023/01/25 08:12:37;;;;;;;80.77;35.00;;;0.40;99.90;;;;;;5030046;28;20113;-48
2023/01/25 08:15:03;;;;;;;80.47;35.40;;;0.40;99.90;;;;;;5030030;28;20029;-46
2023/01/25 08:17:32;;;;;;;76.90;34.60;;;0.30;99.90;;;;;;5029891;28;20038;-45
2023/01/25 08:19:59;;;;;;;72.78;33.85;;;0.30;99.90;;;;;;5030156;28;20064;-45
2023/01/25 08:22:25;;;;;;;77.53;34.30;;;0.40;99.90;;;;;;5030070;28;20029;-50
2023/01/25 08:24:51;;;;;;;67.70;32.20;;;0.40;99.90;;;;;;5029929;28;20032;-46
2023/01/25 08:27:17;;;;;;;77.20;33.83;;;0.40;99.90;;;;;;5029810;28;20402;-45
2023/01/25 08:29:42;;;;;;;76.40;34.93;;;0.40;99.90;;;;;;5030028;28;20036;-46
2023/01/25 08:32:08;;;;;;;76.17;34.57;;;0.40;99.90;;;;;;5029693;28;20034;-48
2023/01/25 08:34:34;;;;;;;76.00;32.87;;;0.40;99.90;;;;;;5029935;28;20037;-47
2023/01/25 08:37:00;;;;;;;78.13;35.50;;;0.30;99.90;;;;;;5029867;28;20383;-49
2023/01/25 08:39:26;;;;;;;72.23;34.23;;;0.30;99.90;;;;;;5029667;28;20047;-52
2023/01/25 08:41:51;;;;;;;75.67;33.87;;;0.40;99.90;;;;;;5029977;28;20112;-49
2023/01/25 08:44:21;;;;;;;75.47;35.03;;;0.50;99.90;;;;;;5029785;28;20053;-52
2023/01/25 08:46:47;;;;;;;77.05;34.17;;;0.60;99.90;;;;;;5030007;28;20440;-51
2023/01/25 08:49:13;;;;;;;79.30;34.70;;;0.70;99.90;;;;;;5030061;28;20037;-52
2023/01/25 08:51:38;;;;;;;79.83;35.40;;;0.60;99.90;;;;;;5017480;28;20430;-46
2023/01/25 08:54:06;;;;;;;75.57;35.83;;;0.70;99.90;;;;;;5010134;28;20037;-46
2023/01/25 08:56:31;;;;;;;77.17;34.40;;;0.60;99.90;;;;;;5010304;28;20041;-48
2023/01/25 08:58:57;;;;;;;79.80;36.00;;;0.50;99.90;;;;;;5010064;28;20038;-48
2023/01/25 09:01:23;;;;;;;76.40;34.97;;;0.50;99.90;;;;;;5010204;28;20061;-51
2023/01/25 09:03:50;;;;;;;80.40;35.50;;;0.50;99.90;;;;;;5013491;28;20479;-48
2023/01/25 09:06:17;;;;;;;75.20;34.97;;;0.40;99.90;;;;;;5013998;28;20034;-48
2023/01/25 09:08:43;;;;;;;75.43;34.73;;;0.40;99.90;;;;;;5013733;28;20034;-48
2023/01/25 09:11:11;;;;;;;81.63;34.90;;;0.40;99.90;;;;;;5013848;28;20030;-49
2023/01/25 09:13:37;;;;;;;81.53;35.80;;;0.40;99.90;;;;;;5013622;28;20483;-48
2023/01/25 09:16:05;;;;;;;81.50;35.17;;;0.20;99.90;;;;;;5013814;28;20040;-48
2023/01/25 09:18:32;;;;;;;76.93;34.13;;;0.20;99.90;;;;;;5013514;28;20030;-45
2023/01/25 09:20:59;;;;;;;75.03;33.87;;;0.20;99.90;;;;;;5013676;28;20033;-48
2023/01/25 09:23:25;;;;;;;79.70;35.63;;;0.30;99.90;;;;;;5013473;28;20041;-46
2023/01/25 09:26:01;;;;;;;75.80;34.67;;;0.30;99.90;;;;;;5013534;28;20479;-45
2023/01/25 09:28:31;;;;;;;79.77;35.40;;;0.40;99.90;;;;;;5013365;28;20467;-45
2023/01/25 09:30:59;;;;;;;82.97;34.90;;;0.50;99.90;;;;;;5013546;28;20030;-46
2023/01/25 09:33:39;;;;;;;75.30;34.13;;;0.50;99.90;;;;;;5038959;23;20048;-49
2023/01/25 09:36:06;;;;;;;76.30;34.70;;;0.50;99.90;;;;;;5033260;28;20036;-50
2023/01/25 09:38:32;;;;;;;76.73;33.67;;;0.60;99.90;;;;;;5032964;28;20144;-47
2023/01/25 09:41:17;;;;;;;74.73;35.37;;;0.60;99.90;;;;;;5033067;28;20643;-51
2023/01/25 09:44:07;;;;;;;69.57;32.07;;;0.60;99.90;;;;;;5032823;28;20120;-47
2023/01/25 09:46:53;;;;;;;72.90;33.33;;;0.60;99.90;;;;;;5032598;28;20030;-49
2023/01/25 09:49:39;;;;;;;74.03;33.27;;;0.60;99.90;;;;;;5032739;28;20060;-48
2023/01/25 09:52:38;;;;;;;73.57;33.17;;;0.50;99.90;;;;;;5032304;28;20502;-49
2023/01/25 09:55:13;;;;;;;72.73;32.50;;;0.50;99.90;;;;;;5032355;28;20052;-51
2023/01/25 09:57:41;;;;;;;70.00;33.10;;;0.40;99.90;;;;;;5032407;28;20467;-49
2023/01/25 10:00:25;;;;;;;72.40;34.13;;;0.40;99.90;;;;;;5032694;28;20033;-49
2023/01/25 10:03:03;;;;;;;75.73;34.00;;;0.50;99.90;;;;;;5032414;28;20026;-52
2023/01/25 10:05:39;;;;;;;67.90;34.20;;;0.50;99.90;;;;;;5032188;28;20087;-48
2023/01/25 10:08:26;;;;;;;74.07;33.47;;;0.40;99.90;;;;;;5032353;28;20052;-49
2023/01/25 10:11:15;;;;;;;76.10;33.43;;;0.30;99.90;;;;;;5031002;28;20029;-50
2023/01/25 10:13:42;;;;;;;76.22;34.33;;;0.30;99.90;;;;;;5031043;28;20032;-51
2023/01/25 10:16:34;;;;;;;80.70;34.90;;;0.20;99.90;;;;;;5032284;28;20029;-52
2023/01/25 10:19:26;;;;;;;86.43;35.00;;;0.00;99.90;;;;;;5032067;28;20034;-50
2023/01/25 10:22:18;;;;;;;72.20;33.67;;;0.10;99.90;;;;;;5031975;28;20026;-48
2023/01/25 10:25:06;;;;;;;69.17;30.77;;;0.10;99.90;;;;;;5031869;28;20072;-49
2023/01/25 10:27:49;;;;;;;86.40;38.03;;;0.20;99.90;;;;;;5031756;28;20026;-52
2023/01/25 10:30:43;;;;;;;71.67;33.73;;;0.30;99.90;;;;;;5031753;28;20049;-54
2023/01/25 10:33:19;;;;;;;76.20;34.00;;;0.40;99.90;;;;;;5031762;28;20030;-53
2023/01/25 10:35:47;;;;;;;75.63;33.87;;;0.40;99.90;;;;;;5031880;28;20022;-49
2023/01/25 10:38:35;;;;;;;77.10;35.00;;;0.30;99.90;;;;;;5031690;28;20033;-50
2023/01/25 10:41:01;;;;;;;78.97;35.57;;;0.20;99.90;;;;;;5019156;28;20084;-47
2023/01/25 10:43:27;;;;;;;80.57;35.43;;;0.20;99.90;;;;;;5030223;28;20534;-50
2023/01/25 10:45:53;;;;;;;77.50;35.77;;;0.30;99.90;;;;;;5031679;28;20036;-48
2023/01/25 10:48:23;;;;;;;76.07;35.77;;;0.30;99.90;;;;;;5031588;28;20033;-51
2023/01/25 10:50:56;;;;;;;78.57;35.43;;;0.40;99.90;;;;;;5031656;28;20497;-47
2023/01/25 10:53:26;;;;;;;73.80;33.53;;;0.50;99.90;;;;;;5031078;28;20029;-48
2023/01/25 10:55:58;;;;;;;81.17;36.53;;;0.50;99.90;;;;;;5031444;28;20479;-49
2023/01/25 10:58:35;;;;;;;76.80;35.63;;;0.50;99.90;;;;;;5029779;28;20033;-48
2023/01/25 11:01:03;;;;;;;82.47;36.23;;;0.40;99.90;;;;;;5031408;28;20030;-47
2023/01/25 11:03:45;;;;;;;81.43;37.73;;;0.40;99.90;;;;;;5031023;28;20414;-49
2023/01/25 11:06:11;;;;;;;82.77;36.60;;;0.50;99.90;;;;;;5031326;28;20029;-48
2023/01/25 11:08:38;;;;;;;83.30;37.13;;;0.50;99.90;;;;;;5030890;28;20036;-47
2023/01/25 11:11:23;;;;;;;77.70;36.60;;;0.60;99.90;;;;;;5031311;28;20087;-49
2023/01/25 11:13:49;;;;;;;84.20;37.57;;;0.60;99.90;;;;;;5030854;28;20039;-49
2023/01/25 11:16:30;;;;;;;82.07;37.30;;;0.50;99.90;;;;;;5030960;28;20033;-52
2023/01/25 11:18:57;;;;;;;86.37;38.53;;;0.50;99.90;;;;;;5031177;28;20060;-48
2023/01/25 11:21:27;;;;;;;84.07;38.00;;;0.60;99.90;;;;;;5031301;28;20026;-51
2023/01/25 11:24:01;;;;;;;;;;;0.60;99.90;;;;;;5031355;28;20068;-50
2023/01/25 11:26:29;;;;;;;83.27;35.53;;;0.50;99.90;;;;;;5029400;28;20297;-49
2023/01/25 11:29:09;;;;;;;84.43;36.77;;;0.60;99.90;;;;;;5030805;28;20034;-49
2023/01/25 11:31:35;;;;;;;74.20;34.03;;;0.70;99.90;;;;;;5030765;28;20104;-52
2023/01/25 11:34:01;;;;;;;77.93;35.33;;;0.70;99.90;;;;;;5030586;28;20561;-50
2023/01/25 11:36:39;;;;;;;80.77;34.93;;;0.70;99.90;;;;;;5030662;28;20217;-51
2023/01/25 11:39:27;;;;;;;77.27;34.07;;;0.70;99.90;;;;;;5030518;28;20056;-49
2023/01/25 11:41:59;;;;;;;80.17;34.90;;;0.70;99.90;;;;;;5018280;28;20355;-48
2023/01/25 11:45:00;;;;;;;81.93;35.70;;;0.70;99.90;;;;;;5030650;28;20049;-50
2023/01/25 11:47:44;;;;;;;84.23;35.33;;;0.70;99.90;;;;;;5030325;28;20389;-51
2023/01/25 11:50:22;;;;;;;76.93;35.43;;;0.60;99.90;;;;;;5030601;28;20037;-51
2023/01/25 11:52:57;;;;;;;82.10;36.33;;;0.70;99.90;;;;;;5030661;28;20045;-50
2023/01/25 11:55:28;;;;;;;81.70;36.03;;;0.70;99.90;;;;;;5030457;28;20030;-49
2023/01/25 11:58:06;;;;;;;78.70;34.93;;;0.70;99.90;;;;;;5030171;28;20366;-49
2023/01/25 12:00:44;;;;;;;80.17;35.33;;;0.70;99.90;;;;;;5030416;28;20501;-48
2023/01/25 12:03:29;;;;;;;81.17;36.30;;;0.50;99.90;;;;;;5029104;28;20485;-48
2023/01/25 12:06:23;;;;;;;82.03;35.10;;;0.30;99.90;;;;;;5030492;28;20022;-48
2023/01/25 12:08:56;;;;;;;81.83;35.47;;;0.20;99.90;;;;;;5030449;28;20088;-48
2023/01/25 12:11:35;;;;;;;84.50;37.10;;;0.30;99.90;;;;;;5029199;28;20033;-48
2023/01/25 12:14:19;;;;;;;;;;;0.30;99.90;;;;;;5030839;28;20030;-48
2023/01/25 12:17:03;;;;;;;73.83;32.40;;;0.40;99.90;;;;;;5030061;28;19916;-50
2023/01/25 12:19:38;;;;;;;74.00;33.63;;;0.50;99.90;;;;;;5030274;28;20040;-48
2023/01/25 12:22:22;;;;;;;76.57;36.07;;;0.50;99.90;;;;;;5030325;28;20083;-49
2023/01/25 12:24:58;;;;;;;77.33;34.60;;;0.50;99.90;;;;;;5030149;28;20116;-50
2023/01/25 12:27:42;;;;;;;76.97;33.90;;;0.60;99.90;;;;;;5030006;28;20033;-48
2023/01/25 12:30:30;;;;;;;74.37;32.80;;;0.60;99.90;;;;;;5030467;28;20374;-49
2023/01/25 12:33:02;;;;;;;71.57;32.83;;;0.60;99.90;;;;;;5030329;28;20037;-49
2023/01/25 12:35:42;;;;;;;73.63;33.10;;;0.60;99.90;;;;;;5029927;28;20490;-49
2023/01/25 12:38:15;;;;;;;;;;;0.50;99.90;;;;;;5032828;28;20033;-49
2023/01/25 12:41:01;;;;;;;76.13;33.03;;;0.40;99.90;;;;;;5033954;28;19909;-50
2023/01/25 12:43:39;;;;;;;70.93;30.73;;;0.30;99.90;;;;;;5033753;28;20036;-54
2023/01/25 12:46:25;;;;;;;75.00;33.13;;;0.40;99.90;;;;;;5034262;28;20029;-49
2023/01/25 12:48:53;;;;;;;75.70;34.23;;;0.40;99.90;;;;;;5033926;28;20076;-49
2023/01/25 12:51:21;;;;;;;75.65;33.83;;;0.30;99.90;;;;;;5033994;28;20030;-53
2023/01/25 12:53:48;;;;;;;80.40;36.40;;;0.40;99.90;;;;;;5033781;28;20064;-49